TAF EPSY 081130Z 0812/0821 VRB03KT CAVOK=